Time;durP1;ratioP1;P1;durP2;ratioP2;P2;SDS_P1;SDS_P2;PMS_P1;PMS_P2;Temp;Humidity;BMP_temperature;BMP_pressure;BME280_temperature;BME280_humidity;BME280_pressure;Samples;Min_cycle;Max_cycle;Signal;HPM_P1;HPM_P2
2023/09/27 00:02:05;;;;;;;24.40;14.13;;;14.60;99.90;;;;;;4414236;28;661436;-69
2023/09/27 00:04:53;;;;;;;28.77;14.83;;;14.60;99.90;;;;;;4413432;28;660528;-69
2023/09/27 00:07:41;;;;;;;24.13;14.23;;;14.50;99.90;;;;;;4387056;28;662143;-70
2023/09/27 00:10:28;;;;;;;27.20;14.13;;;14.50;99.90;;;;;;4381910;28;661323;-70
2023/09/27 00:13:17;;;;;;;22.30;13.50;;;14.50;99.90;;;;;;4402946;28;660658;-70
2023/09/27 00:16:04;;;;;;;23.83;15.07;;;14.50;99.90;;;;;;4384463;28;661033;-70
2023/09/27 00:18:52;;;;;;;27.43;14.17;;;14.40;99.90;;;;;;4410248;28;660570;-70
2023/09/27 00:21:40;;;;;;;28.90;14.33;;;14.40;99.90;;;;;;4385216;28;660934;-70
2023/09/27 00:24:28;;;;;;;29.00;14.20;;;14.40;99.90;;;;;;4397810;28;660946;-69
2023/09/27 00:27:15;;;;;;;35.47;14.57;;;14.30;99.90;;;;;;4410066;28;661574;-70
2023/09/27 00:30:03;;;;;;;26.53;15.83;;;14.30;99.90;;;;;;4389633;28;661053;-69
2023/09/27 00:32:50;;;;;;;27.40;13.93;;;14.20;99.90;;;;;;4412125;28;661780;-70
2023/09/27 00:35:37;;;;;;;24.83;14.50;;;14.20;99.90;;;;;;4391351;28;661150;-70
2023/09/27 00:38:26;;;;;;;25.90;14.53;;;14.20;99.90;;;;;;4406677;28;662333;-69
2023/09/27 00:41:13;;;;;;;29.93;15.57;;;14.10;99.90;;;;;;4389029;28;660252;-69
2023/09/27 00:44:00;;;;;;;22.13;13.87;;;14.00;99.90;;;;;;4409896;28;661018;-70
2023/09/27 00:46:48;;;;;;;20.90;14.17;;;14.00;99.90;;;;;;4385552;28;660691;-69
2023/09/27 00:49:35;;;;;;;22.13;14.53;;;14.00;99.90;;;;;;4411457;28;661398;-70
2023/09/27 00:52:22;;;;;;;30.17;14.77;;;14.00;99.90;;;;;;4396734;28;661288;-70
2023/09/27 00:55:12;;;;;;;22.57;13.37;;;13.90;99.90;;;;;;4410661;28;661832;-70
2023/09/27 00:57:59;;;;;;;29.07;12.83;;;13.90;99.90;;;;;;4385265;28;661926;-69
2023/09/27 01:00:47;;;;;;;28.67;13.57;;;13.90;99.90;;;;;;4412101;28;660551;-70
2023/09/27 01:03:35;;;;;;;27.17;12.37;;;13.90;99.90;;;;;;4376613;28;662193;-69
2023/09/27 01:06:22;;;;;;;19.07;11.90;;;13.80;99.90;;;;;;4401191;28;660915;-69
2023/09/27 01:09:11;;;;;;;20.57;12.60;;;13.80;99.90;;;;;;4417253;28;661891;-69
2023/09/27 01:12:00;;;;;;;19.70;12.37;;;13.80;99.90;;;;;;4392337;28;662525;-69
2023/09/27 01:14:48;;;;;;;19.70;12.27;;;13.80;99.90;;;;;;4414358;28;661058;-69
2023/09/27 01:17:36;;;;;;;20.17;11.70;;;13.80;99.90;;;;;;4380504;28;661916;-69
2023/09/27 01:20:23;;;;;;;18.93;11.53;;;13.70;99.90;;;;;;4389235;28;661953;-69
2023/09/27 01:23:11;;;;;;;18.97;11.07;;;13.70;99.90;;;;;;4408404;28;661184;-69
2023/09/27 01:25:59;;;;;;;21.73;11.13;;;13.70;99.90;;;;;;4382760;28;662013;-69
2023/09/27 01:28:47;;;;;;;21.30;12.10;;;13.60;99.90;;;;;;4399622;28;661068;-69
2023/09/27 01:31:34;;;;;;;23.07;11.40;;;13.60;99.90;;;;;;4386591;28;661992;-69
2023/09/27 01:34:21;;;;;;;19.50;11.10;;;13.60;99.90;;;;;;4409209;28;661089;-69
2023/09/27 01:37:09;;;;;;;18.87;11.00;;;13.50;99.90;;;;;;4393321;28;661557;-69
2023/09/27 01:39:58;;;;;;;17.80;10.83;;;13.50;99.90;;;;;;4408395;28;662264;-69
2023/09/27 01:42:45;;;;;;;24.17;11.47;;;13.50;99.90;;;;;;4382188;28;662377;-69
2023/09/27 01:45:32;;;;;;;25.77;11.30;;;13.50;99.90;;;;;;4404144;28;660613;-70
2023/09/27 01:48:20;;;;;;;20.80;11.93;;;13.40;99.90;;;;;;4411599;28;662206;-69
2023/09/27 01:51:07;;;;;;;26.93;11.47;;;13.40;99.90;;;;;;4396579;28;661426;-69
2023/09/27 01:53:55;;;;;;;25.07;11.20;;;13.30;99.90;;;;;;4407734;28;662364;-70
2023/09/27 01:56:44;;;;;;;22.20;11.60;;;13.30;99.90;;;;;;4409686;28;660632;-70
2023/09/27 01:59:31;;;;;;;26.40;10.93;;;13.30;99.90;;;;;;4415086;28;660194;-69
2023/09/27 02:02:18;;;;;;;19.43;10.63;;;13.20;99.90;;;;;;4389613;28;660696;-69
2023/09/27 02:05:06;;;;;;;20.77;11.60;;;13.20;99.90;;;;;;4406768;28;661896;-70
2023/09/27 02:07:54;;;;;;;20.80;11.20;;;13.20;99.90;;;;;;4387823;28;661202;-70
2023/09/27 02:10:41;;;;;;;18.57;11.13;;;13.10;99.90;;;;;;4412547;28;662527;-69
2023/09/27 02:13:30;;;;;;;19.37;11.40;;;13.10;99.90;;;;;;4391517;28;661436;-69
2023/09/27 02:16:18;;;;;;;25.83;12.10;;;13.10;99.90;;;;;;4404135;28;660880;-69
2023/09/27 02:19:05;;;;;;;20.27;12.07;;;13.10;99.90;;;;;;4411526;28;661609;-69
2023/09/27 02:21:53;;;;;;;21.27;12.33;;;13.00;99.90;;;;;;4405542;28;660568;-70
2023/09/27 02:24:40;;;;;;;22.27;12.27;;;13.00;99.90;;;;;;4419455;28;661661;-69
2023/09/27 02:27:27;;;;;;;21.33;12.37;;;13.00;99.90;;;;;;4398461;28;660756;-69
2023/09/27 02:30:16;;;;;;;21.87;12.43;;;13.10;99.90;;;;;;4410509;28;661446;-69
2023/09/27 02:33:04;;;;;;;19.83;12.30;;;13.00;99.90;;;;;;4393663;28;661418;-69
2023/09/27 02:35:51;;;;;;;21.87;12.07;;;13.00;99.90;;;;;;4415033;28;660980;-69
2023/09/27 02:38:39;;;;;;;20.97;11.80;;;13.00;99.90;;;;;;4384430;28;660966;-70
2023/09/27 02:41:26;;;;;;;20.53;11.83;;;12.90;99.90;;;;;;4409744;28;661795;-69
2023/09/27 02:44:13;;;;;;;17.50;11.00;;;12.90;99.90;;;;;;4382946;28;660521;-69
2023/09/27 02:47:02;;;;;;;29.97;11.80;;;12.90;99.90;;;;;;4417924;28;661238;-70
2023/09/27 02:49:49;;;;;;;19.93;11.87;;;12.80;99.90;;;;;;4383499;28;661610;-69
2023/09/27 02:52:38;;;;;;;24.03;13.33;;;12.80;99.90;;;;;;4405482;28;660656;-70
2023/09/27 02:55:26;;;;;;;22.47;12.33;;;12.80;99.90;;;;;;4387171;28;661567;-69
2023/09/27 02:58:13;;;;;;;22.03;12.87;;;12.80;99.90;;;;;;4386808;28;661307;-70
2023/09/27 03:01:00;;;;;;;29.60;12.97;;;12.80;99.90;;;;;;4419185;28;661521;-69
2023/09/27 03:03:49;;;;;;;18.27;12.40;;;12.80;99.90;;;;;;4386798;28;660640;-70
2023/09/27 03:06:37;;;;;;;20.60;12.55;;;12.70;99.90;;;;;;4404405;28;661503;-69
2023/09/27 03:09:24;;;;;;;22.30;12.03;;;12.70;99.90;;;;;;4390261;28;661500;-69
2023/09/27 03:12:12;;;;;;;27.70;12.63;;;12.70;99.90;;;;;;4417946;28;660618;-69
2023/09/27 03:14:59;;;;;;;20.07;12.70;;;12.70;99.90;;;;;;4388522;28;660857;-70
2023/09/27 03:17:48;;;;;;;22.87;11.70;;;12.60;99.90;;;;;;4401299;28;660895;-69
2023/09/27 03:20:38;;;;;;;26.03;12.57;;;12.60;99.90;;;;;;4381734;28;661417;-70
2023/09/27 03:23:26;;;;;;;21.03;11.83;;;12.60;99.90;;;;;;4383531;28;661229;-69
2023/09/27 03:26:14;;;;;;;19.37;11.77;;;12.60;99.90;;;;;;4390062;28;661497;-69
2023/09/27 03:29:01;;;;;;;21.93;12.83;;;12.50;99.90;;;;;;4404071;28;661621;-70
2023/09/27 03:31:48;;;;;;;18.27;12.60;;;12.50;99.90;;;;;;4387891;28;660678;-70
2023/09/27 03:34:35;;;;;;;24.33;13.03;;;12.50;99.90;;;;;;4412783;28;660649;-70
2023/09/27 03:37:24;;;;;;;19.57;13.07;;;12.50;99.90;;;;;;4392627;28;660973;-69
2023/09/27 03:40:13;;;;;;;22.10;12.73;;;12.50;99.90;;;;;;4408438;28;660682;-69
2023/09/27 03:43:00;;;;;;;23.50;13.00;;;12.40;99.90;;;;;;4383700;28;661727;-70
2023/09/27 03:45:48;;;;;;;26.63;13.07;;;12.40;99.90;;;;;;4390956;28;660729;-69
2023/09/27 03:48:35;;;;;;;21.80;12.60;;;12.40;99.90;;;;;;4410385;28;662038;-70
2023/09/27 03:51:25;;;;;;;24.73;13.33;;;12.40;99.90;;;;;;4384915;28;661270;-70
2023/09/27 03:54:14;;;;;;;25.43;12.47;;;12.40;99.90;;;;;;4381710;28;661083;-70
2023/09/27 03:57:01;;;;;;;23.90;12.40;;;12.40;99.90;;;;;;4409379;28;660116;-69
2023/09/27 03:59:49;;;;;;;26.07;13.27;;;12.40;99.90;;;;;;4381458;28;660923;-70
2023/09/27 04:02:36;;;;;;;26.70;12.23;;;12.40;99.90;;;;;;4410543;28;661006;-70
2023/09/27 04:05:26;;;;;;;25.83;13.00;;;12.30;99.90;;;;;;4381987;28;660936;-69
2023/09/27 04:08:13;;;;;;;18.77;12.80;;;12.40;99.90;;;;;;4386175;28;661438;-70
2023/09/27 04:11:04;;;;;;;23.93;13.37;;;12.30;99.90;;;;;;4411471;28;661981;-70
2023/09/27 04:13:51;;;;;;;21.63;12.50;;;12.30;99.90;;;;;;4389102;28;660943;-69
2023/09/27 04:16:39;;;;;;;23.20;12.60;;;12.30;99.90;;;;;;4384388;28;660677;-69
2023/09/27 04:19:26;;;;;;;18.43;11.97;;;12.30;99.90;;;;;;4404961;28;660676;-69
2023/09/27 04:22:13;;;;;;;23.80;12.33;;;12.30;99.90;;;;;;4391172;28;660911;-70
2023/09/27 04:25:00;;;;;;;20.38;12.23;;;12.30;99.90;;;;;;4410911;28;660686;-69
2023/09/27 04:27:49;;;;;;;25.95;11.50;;;12.30;99.90;;;;;;4392083;28;661062;-69
2023/09/27 04:30:37;;;;;;;19.30;11.37;;;12.30;99.90;;;;;;4402710;28;660991;-70
2023/09/27 04:33:24;;;;;;;20.03;10.87;;;12.30;99.90;;;;;;4383080;28;661097;-69
2023/09/27 04:36:15;;;;;;;19.90;11.47;;;12.30;99.90;;;;;;4410271;28;661187;-69
2023/09/27 04:39:05;;;;;;;20.10;11.50;;;12.30;99.90;;;;;;4369092;28;661279;-70
2023/09/27 04:41:52;;;;;;;19.90;11.10;;;12.30;99.90;;;;;;4383949;28;661279;-70
2023/09/27 04:44:41;;;;;;;20.20;12.13;;;12.30;99.90;;;;;;4407279;28;662048;-70
2023/09/27 04:47:28;;;;;;;15.73;10.73;;;12.30;99.90;;;;;;4380982;28;660615;-70
2023/09/27 04:50:15;;;;;;;19.07;11.23;;;12.30;99.90;;;;;;4399413;28;661941;-69
2023/09/27 04:53:03;;;;;;;20.53;11.33;;;12.30;99.90;;;;;;4388163;28;660684;-69
2023/09/27 04:55:50;;;;;;;25.00;11.80;;;12.30;99.90;;;;;;4406429;28;661344;-69
2023/09/27 04:58:38;;;;;;;21.03;11.07;;;12.30;99.90;;;;;;4396338;28;660382;-70
2023/09/27 05:01:27;;;;;;;21.77;11.77;;;12.30;99.90;;;;;;4410231;28;661716;-69
2023/09/27 05:04:14;;;;;;;19.17;11.87;;;12.40;99.90;;;;;;4383552;28;660741;-70
2023/09/27 05:07:03;;;;;;;19.03;11.37;;;12.40;99.90;;;;;;4400409;28;661239;-70
2023/09/27 05:09:50;;;;;;;24.03;12.33;;;12.40;99.90;;;;;;4381377;28;662130;-70
2023/09/27 05:12:39;;;;;;;21.10;12.87;;;12.50;99.90;;;;;;4380251;28;660859;-70
2023/09/27 05:15:27;;;;;;;21.47;12.93;;;12.50;99.90;;;;;;4400610;28;660604;-69
2023/09/27 05:18:15;;;;;;;20.20;12.90;;;12.60;99.90;;;;;;4376648;28;662338;-69
2023/09/27 05:21:06;;;;;;;25.13;12.50;;;12.70;99.90;;;;;;4387687;28;661402;-70
2023/09/27 05:23:53;;;;;;;22.47;12.20;;;12.70;99.90;;;;;;4384777;28;660855;-69
2023/09/27 05:26:40;;;;;;;17.47;11.17;;;12.80;99.90;;;;;;4406570;28;661441;-69
2023/09/27 05:29:27;;;;;;;20.27;11.38;;;12.80;99.90;;;;;;4391774;28;660957;-69
2023/09/27 05:32:15;;;;;;;20.83;11.73;;;12.90;99.90;;;;;;4407942;28;661239;-69
2023/09/27 05:35:05;;;;;;;26.30;12.87;;;12.90;99.90;;;;;;4408993;28;662621;-69
2023/09/27 05:37:52;;;;;;;20.37;13.30;;;13.00;99.90;;;;;;4380584;28;662062;-69
2023/09/27 05:40:39;;;;;;;20.63;13.10;;;13.10;99.90;;;;;;4386894;28;661659;-69
2023/09/27 05:43:26;;;;;;;21.43;12.37;;;13.20;99.90;;;;;;4410809;28;660834;-69
2023/09/27 05:46:14;;;;;;;29.50;14.57;;;13.40;99.90;;;;;;4384122;28;660825;-69
2023/09/27 05:49:02;;;;;;;30.17;13.77;;;13.50;99.90;;;;;;4408059;28;661361;-69
2023/09/27 05:51:52;;;;;;;23.70;13.30;;;13.60;99.90;;;;;;4386637;28;662047;-69
2023/09/27 05:54:39;;;;;;;24.57;14.83;;;13.70;99.90;;;;;;4377885;28;662200;-70
2023/09/27 05:57:27;;;;;;;20.27;13.53;;;13.80;99.90;;;;;;4407048;28;660868;-69
2023/09/27 06:00:23;;;;;;;22.13;14.30;;;13.90;99.90;;;;;;4386514;28;661097;-69
2023/09/27 06:03:10;;;;;;;31.87;15.50;;;14.10;99.90;;;;;;4379168;28;660860;-69
2023/09/27 06:05:58;;;;;;;34.70;17.23;;;14.20;99.90;;;;;;4384376;28;660727;-69
2023/09/27 06:08:47;;;;;;;45.97;25.63;;;14.40;99.90;;;;;;4414277;28;661553;-69
2023/09/27 06:11:34;;;;;;;47.20;25.47;;;14.70;99.90;;;;;;4383002;28;661710;-70
2023/09/27 06:14:21;;;;;;;41.20;23.30;;;14.90;99.90;;;;;;4403364;28;660470;-69
2023/09/27 06:17:09;;;;;;;44.13;24.63;;;15.10;99.90;;;;;;4385548;28;661256;-69
2023/09/27 06:19:56;;;;;;;56.27;29.90;;;15.30;99.90;;;;;;4404848;28;661479;-70
2023/09/27 06:22:44;;;;;;;55.17;30.60;;;15.50;99.90;;;;;;4390071;28;661232;-69
2023/09/27 06:25:35;;;;;;;50.60;29.57;;;15.80;99.90;;;;;;4407070;28;660629;-69
2023/09/27 06:28:22;;;;;;;49.57;29.53;;;16.00;99.90;;;;;;4398928;28;661466;-71
2023/09/27 06:31:10;;;;;;;50.40;28.33;;;16.20;99.90;;;;;;4414374;28;661082;-70
2023/09/27 06:33:57;;;;;;;52.53;27.80;;;16.40;99.90;;;;;;4380294;28;660746;-70
2023/09/27 06:36:48;;;;;;;54.87;24.50;;;16.60;99.90;;;;;;4409555;28;662931;-70
2023/09/27 06:39:35;;;;;;;41.10;22.70;;;16.80;99.90;;;;;;4388757;28;661960;-70
2023/09/27 06:42:25;;;;;;;39.07;20.80;;;17.00;99.90;;;;;;4396328;28;661638;-70
2023/09/27 06:45:13;;;;;;;31.33;19.40;;;17.20;99.90;;;;;;4387999;28;661454;-70
2023/09/27 06:48:00;;;;;;;32.60;20.27;;;17.40;99.90;;;;;;4400075;28;661168;-70
2023/09/27 06:50:48;;;;;;;28.77;18.07;;;17.50;99.90;;;;;;4394472;28;661268;-70
2023/09/27 06:53:35;;;;;;;34.00;17.43;;;17.70;99.90;;;;;;4407102;28;661675;-70
2023/09/27 06:56:23;;;;;;;29.30;16.77;;;17.90;99.90;;;;;;4380086;28;661125;-70
2023/09/27 06:59:12;;;;;;;25.87;14.33;;;18.00;99.90;;;;;;4407823;28;660846;-70
2023/09/27 07:01:59;;;;;;;25.60;13.57;;;18.20;99.90;;;;;;4389209;28;661556;-70
2023/09/27 07:04:46;;;;;;;22.00;12.20;;;18.30;99.90;;;;;;4400806;28;660975;-70
2023/09/27 07:07:33;;;;;;;20.63;11.23;;;18.50;99.90;;;;;;4389441;28;660747;-70
2023/09/27 07:10:21;;;;;;;40.30;11.40;;;18.60;99.90;;;;;;4409647;28;661165;-70
2023/09/27 07:13:09;;;;;;;17.47;9.33;;;18.70;99.90;;;;;;4384550;28;660623;-70
2023/09/27 07:15:58;;;;;;;14.53;9.20;;;19.00;99.90;;;;;;4410078;28;661164;-70
2023/09/27 07:18:45;;;;;;;13.97;8.50;;;19.10;99.90;;;;;;4380748;28;660153;-70
2023/09/27 07:21:32;;;;;;;13.97;7.70;;;19.30;99.90;;;;;;4384958;28;660110;-69
2023/09/27 07:24:20;;;;;;;16.83;8.00;;;19.60;99.90;;;;;;4412879;28;661531;-70
2023/09/27 07:27:07;;;;;;;13.13;8.23;;;19.70;99.90;;;;;;4399646;28;659837;-70
2023/09/27 07:29:55;;;;;;;11.97;7.60;;;19.90;99.90;;;;;;4414631;28;659955;-70
2023/09/27 07:32:45;;;;;;;15.37;7.70;;;20.10;99.90;;;;;;4394211;28;659554;-69
2023/09/27 07:35:34;;;;;;;14.03;6.60;;;20.30;99.90;;;;;;4390157;28;660069;-69
2023/09/27 07:38:21;;;;;;;12.80;6.80;;;20.50;99.90;;;;;;4400954;28;659895;-69
2023/09/27 07:41:09;;;;;;;9.47;6.37;;;20.70;99.90;;;;;;4383943;28;659791;-69
2023/09/27 07:43:56;;;;;;;18.43;6.53;;;20.80;99.90;;;;;;4406491;28;658263;-69
2023/09/27 07:46:44;;;;;;;14.20;5.70;;;20.90;99.90;;;;;;4388754;28;660458;-69
2023/09/27 07:49:32;;;;;;;11.60;5.90;;;21.00;99.90;;;;;;4407952;28;659635;-69
2023/09/27 07:52:20;;;;;;;10.67;5.40;;;21.20;99.90;;;;;;4383695;28;660176;-68
2023/09/27 07:55:09;;;;;;;12.43;5.27;;;21.40;99.90;;;;;;4403845;28;659938;-69
2023/09/27 07:57:58;;;;;;;9.60;5.10;;;21.60;99.90;;;;;;4386994;28;659882;-69
2023/09/27 08:00:45;;;;;;;12.43;5.23;;;21.70;99.90;;;;;;4383291;28;659286;-69
2023/09/27 08:03:33;;;;;;;13.40;5.43;;;21.90;99.90;;;;;;4387112;28;659964;-69
2023/09/27 08:06:21;;;;;;;10.47;5.67;;;22.10;99.90;;;;;;4394475;28;661118;-69
2023/09/27 08:09:09;;;;;;;14.07;5.17;;;22.30;99.90;;;;;;4383416;28;660628;-68
2023/09/27 08:11:57;;;;;;;9.77;5.30;;;22.40;99.90;;;;;;4400011;28;660410;-68
2023/09/27 08:14:44;;;;;;;10.67;5.30;;;22.50;99.90;;;;;;4379486;28;659317;-68
2023/09/27 08:17:32;;;;;;;14.27;5.32;;;22.80;99.90;;;;;;4402687;28;659500;-68
2023/09/27 08:20:19;;;;;;;13.05;5.53;;;23.00;99.90;;;;;;4376362;28;660693;-69
2023/09/27 08:23:08;;;;;;;8.57;5.38;;;23.10;99.90;;;;;;4393827;28;659257;-68
2023/09/27 08:25:55;;;;;;;11.10;5.30;;;23.20;99.90;;;;;;4384443;28;659124;-68
2023/09/27 08:28:43;;;;;;;12.75;5.28;;;23.30;99.90;;;;;;4386220;28;659913;-68
2023/09/27 08:31:32;;;;;;;10.98;5.20;;;23.50;99.90;;;;;;4401225;28;660158;-68
2023/09/27 08:34:19;;;;;;;17.10;5.30;;;23.70;99.90;;;;;;4378288;28;659957;-68
2023/09/27 08:37:06;;;;;;;10.20;5.30;;;23.90;99.90;;;;;;4403621;28;660021;-68
2023/09/27 08:39:55;;;;;;;11.88;5.57;;;24.10;99.90;;;;;;4393907;28;659666;-68
2023/09/27 08:42:43;;;;;;;12.55;5.25;;;24.40;99.90;;;;;;4403022;28;660406;-68
2023/09/27 08:45:33;;;;;;;12.00;5.32;;;24.60;99.90;;;;;;4405766;28;660448;-68
2023/09/27 08:48:22;;;;;;;14.60;5.57;;;24.70;99.90;;;;;;4392235;28;660117;-68
2023/09/27 08:51:09;;;;;;;8.70;4.65;;;24.90;99.90;;;;;;4387170;28;660224;-68
2023/09/27 08:53:57;;;;;;;12.90;4.97;;;24.90;99.90;;;;;;4408860;28;658726;-68
2023/09/27 08:56:46;;;;;;;14.15;4.95;;;25.10;99.90;;;;;;4382490;28;660435;-68
2023/09/27 08:59:33;;;;;;;12.27;4.80;;;25.30;99.90;;;;;;4394023;28;660472;-68
2023/09/27 09:02:20;;;;;;;17.23;5.13;;;25.50;92.00;;;;;;4409191;28;660060;-67
2023/09/27 09:05:08;;;;;;;10.07;5.07;;;25.70;99.90;;;;;;4392413;28;659683;-68
2023/09/27 09:07:56;;;;;;;13.75;5.00;;;25.80;83.50;;;;;;4394473;28;660856;-68
2023/09/27 09:10:43;;;;;;;12.38;5.03;;;25.80;80.80;;;;;;4370570;28;660183;-68
2023/09/27 09:13:47;;;;;;;11.75;4.80;;;25.90;99.90;;;;;;4401461;28;660306;-68
2023/09/27 09:16:39;;;;;;;7.22;4.82;;;26.40;99.90;;;;;;4358725;28;660273;-68
2023/09/27 09:19:27;;;;;;;10.02;4.80;;;26.60;77.90;;;;;;4374401;28;659439;-68
2023/09/27 09:22:15;;;;;;;10.13;4.90;;;26.80;75.90;;;;;;4370569;28;660993;-68
2023/09/27 09:25:03;;;;;;;12.98;4.57;;;26.80;68.20;;;;;;4380344;28;659658;-68
2023/09/27 09:28:03;;;;;;;9.30;4.72;;;26.90;77.30;;;;;;4393169;28;661280;-68
2023/09/27 09:30:52;;;;;;;10.30;4.30;;;27.10;78.60;;;;;;4372898;28;658979;-68
2023/09/27 09:33:40;;;;;;;8.38;4.60;;;27.20;67.20;;;;;;4369882;28;661196;-68
2023/09/27 09:36:28;;;;;;;9.55;4.43;;;27.30;62.90;;;;;;4396765;28;658919;-68
2023/09/27 09:39:16;;;;;;;10.07;4.45;;;27.30;65.10;;;;;;4400624;28;659948;-67
2023/09/27 09:42:03;;;;;;;11.48;4.30;;;27.50;62.60;;;;;;4373911;28;660152;-68
2023/09/27 09:44:59;;;;;;;8.85;4.13;;;27.70;64.80;;;;;;4392271;28;661000;-68
2023/09/27 09:47:48;;;;;;;11.47;4.23;;;27.80;60.50;;;;;;4368391;28;658691;-68
2023/09/27 09:50:35;;;;;;;13.35;4.70;;;27.80;61.10;;;;;;4378904;28;661281;-68
2023/09/27 09:53:23;;;;;;;10.82;4.60;;;28.10;62.50;;;;;;4372170;28;661210;-68
2023/09/27 09:56:12;;;;;;;10.38;4.40;;;28.30;59.80;;;;;;4402154;28;661117;-67
2023/09/27 09:59:03;;;;;;;16.57;3.90;;;28.50;58.10;;;;;;4373691;28;660568;-67
2023/09/27 10:01:51;;;;;;;12.17;4.13;;;28.90;56.00;;;;;;4366832;28;661309;-67
2023/09/27 10:04:39;;;;;;;9.35;4.68;;;28.80;53.70;;;;;;4364268;28;659732;-67
2023/09/27 10:07:27;;;;;;;6.40;3.97;;;29.00;54.40;;;;;;4405489;28;658869;-67
2023/09/27 10:10:14;;;;;;;6.75;4.20;;;29.10;55.50;;;;;;4392630;28;658990;-67
2023/09/27 10:13:02;;;;;;;9.57;3.92;;;28.90;51.50;;;;;;4419601;28;657983;-67
2023/09/27 10:15:49;;;;;;;10.55;4.28;;;29.10;52.80;;;;;;4384914;28;659477;-67
2023/09/27 10:18:37;;;;;;;9.93;3.90;;;29.30;51.80;;;;;;4412184;28;659904;-67
2023/09/27 10:21:26;;;;;;;7.38;3.70;;;29.40;51.60;;;;;;4386433;28;659253;-67
2023/09/27 10:24:13;;;;;;;10.02;3.83;;;29.80;49.20;;;;;;4386356;28;659204;-67
2023/09/27 10:27:01;;;;;;;10.43;3.58;;;30.20;48.50;;;;;;4409144;28;659442;-67
2023/09/27 10:30:00;;;;;;;8.82;4.22;;;29.90;49.30;;;;;;4390300;28;660493;-67
2023/09/27 10:32:48;;;;;;;7.55;3.80;;;29.80;49.40;;;;;;4370602;28;658621;-67
2023/09/27 10:35:35;;;;;;;8.18;3.78;;;30.00;48.90;;;;;;4411434;28;659953;-67
2023/09/27 10:38:24;;;;;;;8.05;3.83;;;30.20;46.10;;;;;;4396339;28;659608;-67
2023/09/27 10:41:13;;;;;;;13.73;3.97;;;29.90;50.30;;;;;;4403235;28;659000;-67
2023/09/27 10:44:00;;;;;;;10.70;3.75;;;29.30;50.40;;;;;;4382905;28;660673;-67
2023/09/27 10:46:48;;;;;;;13.48;4.35;;;29.60;51.40;;;;;;4373722;28;660147;-67
2023/09/27 10:49:38;;;;;;;13.23;4.00;;;29.90;52.10;;;;;;4405797;28;660187;-67
2023/09/27 10:52:26;;;;;;;8.70;3.55;;;30.10;47.50;;;;;;4391447;28;661362;-67
2023/09/27 10:55:15;;;;;;;9.60;4.10;;;30.40;50.90;;;;;;4387809;28;658449;-67
2023/09/27 10:58:03;;;;;;;7.30;3.55;;;30.00;45.80;;;;;;4381319;28;659334;-67
2023/09/27 11:00:51;;;;;;;16.52;3.63;;;30.00;48.60;;;;;;4410027;28;658580;-67
2023/09/27 11:03:38;;;;;;;12.15;4.60;;;30.30;49.50;;;;;;4387372;28;659589;-67
2023/09/27 11:06:26;;;;;;;12.35;4.35;;;30.40;46.40;;;;;;4406620;28;660474;-67
2023/09/27 11:09:13;;;;;;;11.65;3.80;;;29.80;45.90;;;;;;4383462;28;660075;-67
2023/09/27 11:12:02;;;;;;;12.70;3.88;;;29.50;46.10;;;;;;4410940;28;660152;-67
2023/09/27 11:14:49;;;;;;;9.88;4.10;;;29.90;48.20;;;;;;4379034;28;660032;-67
2023/09/27 11:17:36;;;;;;;11.70;4.15;;;30.70;47.20;;;;;;4403759;28;659316;-67
2023/09/27 11:20:23;;;;;;;10.88;4.25;;;31.00;48.50;;;;;;4382442;28;660287;-67
2023/09/27 11:23:10;;;;;;;10.00;3.88;;;29.50;46.20;;;;;;4401298;28;661146;-67
2023/09/27 11:26:03;;;;;;;8.93;3.85;;;30.30;49.20;;;;;;4381071;28;659867;-67
2023/09/27 11:28:59;;;;;;;7.72;3.78;;;30.70;46.80;;;;;;4383641;28;659314;-66
2023/09/27 11:31:47;;;;;;;9.57;3.60;;;30.90;44.70;;;;;;4381027;28;658723;-67
2023/09/27 11:34:34;;;;;;;10.20;3.78;;;29.80;43.80;;;;;;4382331;28;660503;-66
2023/09/27 11:37:23;;;;;;;8.05;3.78;;;30.20;47.10;;;;;;4403645;28;659210;-66
2023/09/27 11:40:11;;;;;;;13.48;4.10;;;30.50;46.30;;;;;;4389521;28;660319;-67
2023/09/27 11:42:58;;;;;;;8.30;3.35;;;30.80;45.30;;;;;;4383158;28;659844;-66
2023/09/27 11:45:47;;;;;;;8.32;4.20;;;31.30;45.40;;;;;;4415885;28;659326;-67
2023/09/27 11:48:34;;;;;;;7.55;3.80;;;31.90;43.00;;;;;;4386412;28;659153;-67
2023/09/27 11:51:23;;;;;;;7.80;4.13;;;31.80;43.50;;;;;;4403589;28;658627;-67
2023/09/27 11:54:12;;;;;;;11.93;4.20;;;31.90;43.70;;;;;;4386412;28;660283;-67
2023/09/27 11:56:59;;;;;;;12.13;3.95;;;31.80;45.60;;;;;;4382119;28;660923;-67
2023/09/27 11:59:46;;;;;;;15.07;3.88;;;31.60;42.20;;;;;;4404955;28;659866;-67
2023/09/27 12:02:35;;;;;;;14.70;4.43;;;31.50;42.30;;;;;;4378316;28;660167;-67
2023/09/27 12:05:22;;;;;;;7.82;4.32;;;31.30;42.60;;;;;;4378624;28;659837;-67
2023/09/27 12:08:10;;;;;;;11.90;4.20;;;31.20;43.10;;;;;;4408318;28;660617;-67
2023/09/27 12:10:59;;;;;;;12.57;3.75;;;30.90;46.10;;;;;;4403386;28;659654;-67
2023/09/27 12:13:46;;;;;;;12.65;3.95;;;31.00;46.10;;;;;;4405189;28;660136;-67
2023/09/27 12:16:33;;;;;;;9.07;3.78;;;31.30;43.10;;;;;;4379699;28;659916;-67
2023/09/27 12:19:22;;;;;;;9.57;3.75;;;31.30;42.30;;;;;;4401249;28;660445;-67
2023/09/27 12:22:09;;;;;;;13.73;3.70;;;31.30;42.30;;;;;;4373165;28;659572;-66
2023/09/27 12:24:56;;;;;;;8.80;4.00;;;31.00;42.60;;;;;;4391899;28;659899;-66
2023/09/27 12:27:43;;;;;;;10.45;3.75;;;30.70;42.40;;;;;;4383827;28;658709;-66
2023/09/27 12:30:31;;;;;;;8.45;4.32;;;30.70;44.20;;;;;;4402795;28;660870;-66
2023/09/27 12:33:18;;;;;;;9.43;4.00;;;30.80;44.60;;;;;;4377326;28;658437;-66
2023/09/27 12:36:07;;;;;;;5.68;3.80;;;31.00;44.20;;;;;;4394119;28;659029;-67
2023/09/27 12:38:54;;;;;;;7.90;4.22;;;31.20;43.10;;;;;;4387079;28;659655;-66
2023/09/27 12:41:41;;;;;;;11.32;4.00;;;31.10;44.90;;;;;;4406620;28;658653;-67
2023/09/27 12:44:28;;;;;;;7.45;3.90;;;31.50;46.10;;;;;;4383768;28;659588;-66
2023/09/27 12:47:16;;;;;;;11.57;3.55;;;30.70;46.30;;;;;;4406865;28;659598;-66
2023/09/27 12:50:03;;;;;;;6.55;3.70;;;30.90;43.20;;;;;;4374319;28;659628;-66
2023/09/27 12:52:52;;;;;;;8.50;3.63;;;30.90;43.60;;;;;;4405657;28;659509;-66
2023/09/27 12:55:42;;;;;;;17.10;4.80;;;30.60;44.40;;;;;;4386178;28;660356;-66
2023/09/27 12:58:30;;;;;;;16.43;4.23;;;30.90;44.60;;;;;;4376070;28;660442;-66
2023/09/27 13:01:17;;;;;;;11.82;4.15;;;31.00;45.40;;;;;;4405765;28;660040;-66
2023/09/27 13:04:04;;;;;;;10.70;4.20;;;31.10;43.10;;;;;;4379429;28;660749;-66
2023/09/27 13:06:51;;;;;;;12.30;4.47;;;31.10;43.10;;;;;;4398964;28;659258;-66
2023/09/27 13:09:41;;;;;;;7.50;3.87;;;31.30;44.10;;;;;;4385322;28;660304;-66
2023/09/27 13:12:28;;;;;;;17.65;4.97;;;31.50;43.70;;;;;;4389242;28;658703;-66
2023/09/27 13:15:15;;;;;;;9.40;4.00;;;31.50;43.30;;;;;;4406491;28;660162;-66
2023/09/27 13:18:03;;;;;;;12.88;4.15;;;31.50;42.00;;;;;;4379470;28;659208;-66
2023/09/27 13:20:50;;;;;;;8.23;4.40;;;31.70;44.40;;;;;;4399173;28;661239;-67
2023/09/27 13:23:40;;;;;;;15.50;4.10;;;31.90;41.50;;;;;;4399267;28;659134;-66
2023/09/27 13:26:29;;;;;;;8.90;3.85;;;31.80;40.20;;;;;;4377732;28;659651;-67
2023/09/27 13:29:16;;;;;;;13.10;4.57;;;31.90;41.30;;;;;;4404766;28;659101;-66
2023/09/27 13:32:03;;;;;;;8.48;3.92;;;31.80;40.40;;;;;;4388364;28;659704;-66
2023/09/27 13:34:51;;;;;;;10.68;4.28;;;31.70;42.30;;;;;;4394844;28;658746;-66
2023/09/27 13:37:38;;;;;;;11.02;4.30;;;31.70;41.10;;;;;;4384100;28;659798;-67
2023/09/27 13:40:25;;;;;;;6.78;3.50;;;31.70;39.80;;;;;;4405265;28;660135;-66
2023/09/27 13:43:14;;;;;;;12.63;3.75;;;31.60;38.60;;;;;;4385466;28;658467;-67
2023/09/27 13:46:01;;;;;;;12.60;4.10;;;31.20;40.40;;;;;;4395005;28;660576;-66
2023/09/27 13:48:49;;;;;;;7.53;4.32;;;31.10;40.60;;;;;;4384279;28;660244;-66
2023/09/27 13:51:36;;;;;;;7.72;4.53;;;31.00;39.40;;;;;;4406824;28;659453;-66
2023/09/27 13:54:23;;;;;;;17.45;5.28;;;31.10;40.90;;;;;;4387166;28;658622;-66
2023/09/27 13:57:11;;;;;;;12.20;5.32;;;31.00;41.00;;;;;;4397356;28;660969;-66
2023/09/27 13:59:59;;;;;;;17.60;6.40;;;31.00;43.00;;;;;;4390835;28;659992;-66
2023/09/27 14:02:46;;;;;;;14.75;6.28;;;31.10;43.10;;;;;;4410283;28;659256;-66
2023/09/27 14:05:33;;;;;;;21.97;6.33;;;31.30;42.00;;;;;;4378774;28;660681;-66
2023/09/27 14:08:21;;;;;;;13.90;5.85;;;32.30;41.50;;;;;;4409486;28;659996;-66